• Join FlightAware (Why Join?)
  • Login
  • US Flag 
10:10PM EST


 

Airport Tracker/Info


-or-


 

Live Flight TrackerFlight Track Log ✈ G52652 ✈ 22-Feb-2014 ✈ ZGWZ / WUZ - ZGNN / NNG

Flight Track Log - Related Links

Times and Time Zones

All times are in EST time to prevent confusion due to time zone crossing. See the G52652 flight status page for this flight to view local times or setup timezone preferences in your user account.

Time Position Orientation Groundspeed Altitude Reporting Facility
EST Latitude Longitude Course Direction KTS MPH feet Rate Location/Type
11:01PM 22.9557 109.4014 254° West  Level Estimated
11:02PM 22.9272 109.2992 253° West  Level Estimated
11:03PM 22.8987 109.1971 253° West  Level Estimated
11:04PM 22.8701 109.0950 253° West  Level Estimated
11:05PM 22.8414 108.9929 253° West  Level Estimated
11:06PM 22.8127 108.8909 253° West  Level Estimated
11:07PM 22.7839 108.7889 253° West  Level Estimated
11:08PM 22.7551 108.6870 253° West  Level Estimated
11:09PM 22.7262 108.5851 253° West  Level Estimated
11:10PM 22.6972 108.4833 253° West  Level Estimated
11:11PM 22.6681 108.3815 253° West  Level Estimated
11:12PM 22.6390 108.2797 253° West  Level Estimated
11:13PM 22.6099 108.1780 253° West  Level Estimated
11:14PM 22.6083 108.1724 253° West  Level Estimated
11:15PM 22.6083 108.1724 148° Southeast  Level Estimated
11:16PM 22.6083 108.1724 148° Southeast  Level Estimated
11:17PM 22.6083 108.1724 148° Southeast  Level Estimated
11:18PM 22.6083 108.1724 148° Southeast  Level Estimated
11:19PM 22.6083 108.1724 148° Southeast  Level Estimated
11:20PM 22.6083 108.1724 148° Southeast  Level Estimated
11:21PM 22.6083 108.1724 148° Southeast  Level Estimated
11:22PM 22.6083 108.1724 148° Southeast  Level Estimated
11:23PM 22.6083 108.1724 148° Southeast  Level Estimated
11:24PM 22.6083 108.1724 148° Southeast  Level Estimated
11:25PM 22.6083 108.1724 148° Southeast  Level Estimated
11:26PM 22.6083 108.1724 148° Southeast  Level Estimated
11:27PM 22.6083 108.1724 148° Southeast  Level Estimated
11:28PM 22.6083 108.1724 148° Southeast  Level Estimated
11:29PM 22.6083 108.1724 148° Southeast  Level Estimated
11:30PM 22.6083 108.1724 148° Southeast  Level Estimated
11:31PM 22.6083 108.1724 148° Southeast  Level Estimated
11:32PM 22.6083 108.1724 148° Southeast  Level Estimated
11:33PM 22.6083 108.1724 148° Southeast  Level Estimated
11:34PM 22.6083 108.1724 148° Southeast  Level Estimated
11:35PM 22.6083 108.1724 148° Southeast  Level Estimated
11:36PM 22.6083 108.1724 148° Southeast  Level Estimated
11:37PM 22.6083 108.1724 148° Southeast  Level Estimated
11:38PM 22.6083 108.1724 148° Southeast  Level Estimated
11:39PM 22.6083 108.1724 148° Southeast  Level Estimated
11:40PM 22.6083 108.1724 148° Southeast  Level Estimated
11:41PM 22.6083 108.1724 148° Southeast  Level Estimated